sensor_id;sensor_type;location;lat;lon;timestamp;pressure;altitude;pressure_sealevel;temperature;humidity
73106;BME280;61559;50.476;15.588;2023-04-12T00:00:32;97310.69;;;-0.11;85.73
73106;BME280;61559;50.476;15.588;2023-04-12T00:03:16;97300.48;;;-0.16;85.97
73106;BME280;61559;50.476;15.588;2023-04-12T00:05:49;97298.21;;;-0.14;85.92
73106;BME280;61559;50.476;15.588;2023-04-12T00:08:23;97296.74;;;-0.14;86.04
73106;BME280;61559;50.476;15.588;2023-04-12T00:11:03;97292.09;;;-0.15;85.86
73106;BME280;61559;50.476;15.588;2023-04-12T00:13:34;97288.80;;;-0.14;85.88
73106;BME280;61559;50.476;15.588;2023-04-12T00:16:08;97285.52;;;-0.14;85.88
73106;BME280;61559;50.476;15.588;2023-04-12T00:18:43;97295.33;;;-0.14;85.73
73106;BME280;61559;50.476;15.588;2023-04-12T00:21:13;97293.30;;;-0.14;85.78
73106;BME280;61559;50.476;15.588;2023-04-12T00:23:48;97288.27;;;-0.16;85.60
73106;BME280;61559;50.476;15.588;2023-04-12T00:26:19;97294.60;;;-0.17;85.55
73106;BME280;61559;50.476;15.588;2023-04-12T00:28:50;97295.55;;;-0.18;85.51
73106;BME280;61559;50.476;15.588;2023-04-12T00:31:21;97294.67;;;-0.19;85.66
73106;BME280;61559;50.476;15.588;2023-04-12T00:33:53;97295.83;;;-0.20;85.71
73106;BME280;61559;50.476;15.588;2023-04-12T00:36:25;97291.98;;;-0.21;85.67
73106;BME280;61559;50.476;15.588;2023-04-12T00:38:56;97286.33;;;-0.26;85.69
73106;BME280;61559;50.476;15.588;2023-04-12T00:41:27;97285.70;;;-0.35;85.69
73106;BME280;61559;50.476;15.588;2023-04-12T00:43:58;97279.72;;;-0.42;85.68
73106;BME280;61559;50.476;15.588;2023-04-12T00:46:29;97279.84;;;-0.45;85.88
73106;BME280;61559;50.476;15.588;2023-04-12T00:49:02;97279.19;;;-0.45;85.87
73106;BME280;61559;50.476;15.588;2023-04-12T00:51:33;97273.63;;;-0.45;85.97
73106;BME280;61559;50.476;15.588;2023-04-12T00:54:07;97275.55;;;-0.43;85.88
73106;BME280;61559;50.476;15.588;2023-04-12T00:56:38;97279.27;;;-0.43;85.66
73106;BME280;61559;50.476;15.588;2023-04-12T00:59:10;97283.21;;;-0.42;85.84
73106;BME280;61559;50.476;15.588;2023-04-12T01:01:41;97287.02;;;-0.41;85.60
73106;BME280;61559;50.476;15.588;2023-04-12T01:04:14;97283.52;;;-0.42;85.65
73106;BME280;61559;50.476;15.588;2023-04-12T01:06:48;97281.64;;;-0.41;85.71
73106;BME280;61559;50.476;15.588;2023-04-12T01:09:29;97283.57;;;-0.42;85.87
73106;BME280;61559;50.476;15.588;2023-04-12T01:12:10;97279.05;;;-0.42;85.94
73106;BME280;61559;50.476;15.588;2023-04-12T01:14:45;97270.70;;;-0.44;86.04
73106;BME280;61559;50.476;15.588;2023-04-12T01:17:22;97271.84;;;-0.47;86.19
73106;BME280;61559;50.476;15.588;2023-04-12T01:19:59;97267.21;;;-0.49;86.12
73106;BME280;61559;50.476;15.588;2023-04-12T01:22:57;97261.82;;;-0.53;85.99
73106;BME280;61559;50.476;15.588;2023-04-12T01:25:44;97265.11;;;-0.57;86.11
73106;BME280;61559;50.476;15.588;2023-04-12T01:28:21;97256.53;;;-0.61;86.10
73106;BME280;61559;50.476;15.588;2023-04-12T01:30:54;97260.08;;;-0.67;86.10
73106;BME280;61559;50.476;15.588;2023-04-12T01:33:26;97250.64;;;-0.71;86.61
73106;BME280;61559;50.476;15.588;2023-04-12T01:36:01;97258.42;;;-0.72;86.65
73106;BME280;61559;50.476;15.588;2023-04-12T01:38:36;97256.85;;;-0.72;86.90
73106;BME280;61559;50.476;15.588;2023-04-12T01:41:08;97252.38;;;-0.70;86.77
73106;BME280;61559;50.476;15.588;2023-04-12T01:43:43;97246.98;;;-0.67;86.93
73106;BME280;61559;50.476;15.588;2023-04-12T01:46:15;97245.20;;;-0.62;86.92
73106;BME280;61559;50.476;15.588;2023-04-12T01:48:51;97245.03;;;-0.58;86.90
73106;BME280;61559;50.476;15.588;2023-04-12T01:51:38;97237.27;;;-0.55;86.58
73106;BME280;61559;50.476;15.588;2023-04-12T01:54:16;97233.30;;;-0.52;86.67
73106;BME280;61559;50.476;15.588;2023-04-12T01:56:55;97232.80;;;-0.50;86.53
73106;BME280;61559;50.476;15.588;2023-04-12T01:59:31;97228.16;;;-0.48;86.63
73106;BME280;61559;50.476;15.588;2023-04-12T02:02:04;97224.65;;;-0.45;86.57
73106;BME280;61559;50.476;15.588;2023-04-12T02:04:37;97230.95;;;-0.42;86.63
73106;BME280;61559;50.476;15.588;2023-04-12T02:07:08;97230.30;;;-0.40;86.63
73106;BME280;61559;50.476;15.588;2023-04-12T02:09:40;97228.61;;;-0.37;86.77
73106;BME280;61559;50.476;15.588;2023-04-12T02:12:11;97226.30;;;-0.34;86.77
73106;BME280;61559;50.476;15.588;2023-04-12T02:14:43;97229.52;;;-0.31;86.59
73106;BME280;61559;50.476;15.588;2023-04-12T02:17:14;97221.68;;;-0.29;86.49
73106;BME280;61559;50.476;15.588;2023-04-12T02:19:47;97217.17;;;-0.29;86.34
73106;BME280;61559;50.476;15.588;2023-04-12T02:22:18;97212.81;;;-0.38;86.38
73106;BME280;61559;50.476;15.588;2023-04-12T02:24:50;97204.23;;;-0.49;86.37
73106;BME280;61559;50.476;15.588;2023-04-12T02:27:20;97207.43;;;-0.54;86.60
73106;BME280;61559;50.476;15.588;2023-04-12T02:29:51;97199.76;;;-0.58;86.75
73106;BME280;61559;50.476;15.588;2023-04-12T02:32:22;97194.64;;;-0.59;86.79
73106;BME280;61559;50.476;15.588;2023-04-12T02:34:53;97188.89;;;-0.63;86.86
73106;BME280;61559;50.476;15.588;2023-04-12T02:37:27;97184.91;;;-0.69;86.66
73106;BME280;61559;50.476;15.588;2023-04-12T02:39:58;97178.18;;;-0.76;86.56
73106;BME280;61559;50.476;15.588;2023-04-12T02:42:32;97168.71;;;-0.83;86.90
73106;BME280;61559;50.476;15.588;2023-04-12T02:45:05;97166.79;;;-0.87;86.85
73106;BME280;61559;50.476;15.588;2023-04-12T02:47:36;97161.41;;;-0.88;87.02
73106;BME280;61559;50.476;15.588;2023-04-12T02:50:09;97159.54;;;-0.89;86.99
73106;BME280;61559;50.476;15.588;2023-04-12T02:52:40;97156.45;;;-0.91;87.05
73106;BME280;61559;50.476;15.588;2023-04-12T02:55:11;97154.94;;;-0.91;87.25
73106;BME280;61559;50.476;15.588;2023-04-12T02:57:44;97149.06;;;-0.91;87.26
73106;BME280;61559;50.476;15.588;2023-04-12T03:00:16;97149.15;;;-0.92;87.31
73106;BME280;61559;50.476;15.588;2023-04-12T03:02:48;97147.79;;;-0.92;87.17
73106;BME280;61559;50.476;15.588;2023-04-12T03:05:20;97141.66;;;-0.94;87.34
73106;BME280;61559;50.476;15.588;2023-04-12T03:07:51;97136.49;;;-0.96;87.43
73106;BME280;61559;50.476;15.588;2023-04-12T03:10:22;97134.31;;;-0.96;87.60
73106;BME280;61559;50.476;15.588;2023-04-12T03:12:53;97133.87;;;-0.95;87.14
73106;BME280;61559;50.476;15.588;2023-04-12T03:15:25;97130.63;;;-0.96;87.04
73106;BME280;61559;50.476;15.588;2023-04-12T03:17:56;97129.99;;;-0.93;86.88
73106;BME280;61559;50.476;15.588;2023-04-12T03:20:27;97121.91;;;-0.93;86.66
73106;BME280;61559;50.476;15.588;2023-04-12T03:22:59;97121.48;;;-0.94;86.53
73106;BME280;61559;50.476;15.588;2023-04-12T03:25:30;97122.84;;;-0.96;86.12
73106;BME280;61559;50.476;15.588;2023-04-12T03:28:01;97117.63;;;-0.97;86.34
73106;BME280;61559;50.476;15.588;2023-04-12T03:30:35;97118.83;;;-0.98;86.27
73106;BME280;61559;50.476;15.588;2023-04-12T03:33:06;97115.55;;;-1.04;86.04
73106;BME280;61559;50.476;15.588;2023-04-12T03:35:37;97123.79;;;-1.04;86.24
73106;BME280;61559;50.476;15.588;2023-04-12T03:38:08;97128.48;;;-1.06;86.13
73106;BME280;61559;50.476;15.588;2023-04-12T03:40:39;97125.02;;;-1.08;86.23
73106;BME280;61559;50.476;15.588;2023-04-12T03:43:10;97123.73;;;-1.11;86.23
73106;BME280;61559;50.476;15.588;2023-04-12T03:45:41;97126.17;;;-1.14;86.01
73106;BME280;61559;50.476;15.588;2023-04-12T03:48:12;97126.05;;;-1.18;86.08
73106;BME280;61559;50.476;15.588;2023-04-12T03:50:44;97124.90;;;-1.21;86.12
73106;BME280;61559;50.476;15.588;2023-04-12T03:53:15;97120.53;;;-1.25;86.25
73106;BME280;61559;50.476;15.588;2023-04-12T03:55:46;97120.23;;;-1.29;86.20
73106;BME280;61559;50.476;15.588;2023-04-12T03:58:18;97119.79;;;-1.34;86.15
73106;BME280;61559;50.476;15.588;2023-04-12T04:00:49;97122.05;;;-1.36;86.32
73106;BME280;61559;50.476;15.588;2023-04-12T04:03:21;97123.77;;;-1.35;86.31
73106;BME280;61559;50.476;15.588;2023-04-12T04:05:56;97125.55;;;-1.34;86.22
73106;BME280;61559;50.476;15.588;2023-04-12T04:08:27;97123.40;;;-1.31;86.31
73106;BME280;61559;50.476;15.588;2023-04-12T04:10:58;97123.86;;;-1.30;86.03
73106;BME280;61559;50.476;15.588;2023-04-12T04:13:30;97120.60;;;-1.34;85.94
73106;BME280;61559;50.476;15.588;2023-04-12T04:16:03;97121.60;;;-1.34;85.89
73106;BME280;61559;50.476;15.588;2023-04-12T04:18:35;97120.44;;;-1.34;85.84
73106;BME280;61559;50.476;15.588;2023-04-12T04:21:07;97124.07;;;-1.35;85.77
73106;BME280;61559;50.476;15.588;2023-04-12T04:23:41;97116.17;;;-1.41;85.62
73106;BME280;61559;50.476;15.588;2023-04-12T04:26:16;97110.85;;;-1.53;85.79
73106;BME280;61559;50.476;15.588;2023-04-12T04:28:48;97113.41;;;-1.66;85.76
73106;BME280;61559;50.476;15.588;2023-04-12T04:31:20;97114.92;;;-1.70;86.01
73106;BME280;61559;50.476;15.588;2023-04-12T04:33:55;97115.60;;;-1.69;86.30
73106;BME280;61559;50.476;15.588;2023-04-12T04:36:27;97116.35;;;-1.64;86.38
73106;BME280;61559;50.476;15.588;2023-04-12T04:38:59;97118.89;;;-1.58;86.32
73106;BME280;61559;50.476;15.588;2023-04-12T04:41:30;97122.19;;;-1.52;86.24
73106;BME280;61559;50.476;15.588;2023-04-12T04:44:03;97128.33;;;-1.44;86.32
73106;BME280;61559;50.476;15.588;2023-04-12T04:46:38;97139.00;;;-1.38;86.30
73106;BME280;61559;50.476;15.588;2023-04-12T04:49:09;97140.52;;;-1.31;86.16
73106;BME280;61559;50.476;15.588;2023-04-12T04:51:40;97138.52;;;-1.24;86.40
73106;BME280;61559;50.476;15.588;2023-04-12T04:54:11;97140.60;;;-1.17;86.12
73106;BME280;61559;50.476;15.588;2023-04-12T04:56:42;97144.05;;;-1.10;85.99
73106;BME280;61559;50.476;15.588;2023-04-12T04:59:14;97142.74;;;-1.03;86.15
73106;BME280;61559;50.476;15.588;2023-04-12T05:01:46;97146.13;;;-0.98;86.23
73106;BME280;61559;50.476;15.588;2023-04-12T05:04:17;97144.25;;;-0.92;86.37
73106;BME280;61559;50.476;15.588;2023-04-12T05:06:48;97142.70;;;-0.86;86.55
73106;BME280;61559;50.476;15.588;2023-04-12T05:09:19;97139.91;;;-0.80;86.53
73106;BME280;61559;50.476;15.588;2023-04-12T05:11:50;97143.58;;;-0.78;86.41
73106;BME280;61559;50.476;15.588;2023-04-12T05:14:21;97153.31;;;-0.74;86.49
73106;BME280;61559;50.476;15.588;2023-04-12T05:16:52;97150.34;;;-0.66;86.61
73106;BME280;61559;50.476;15.588;2023-04-12T05:19:23;97142.67;;;-0.62;86.62
73106;BME280;61559;50.476;15.588;2023-04-12T05:21:55;97147.62;;;-0.58;86.59
73106;BME280;61559;50.476;15.588;2023-04-12T05:24:27;97153.69;;;-0.49;86.82
73106;BME280;61559;50.476;15.588;2023-04-12T05:26:58;97159.01;;;-0.40;86.84
73106;BME280;61559;50.476;15.588;2023-04-12T05:29:29;97163.02;;;-0.31;86.85
73106;BME280;61559;50.476;15.588;2023-04-12T05:32:00;97160.33;;;-0.24;86.79
73106;BME280;61559;50.476;15.588;2023-04-12T05:34:32;97147.06;;;-0.15;86.84
73106;BME280;61559;50.476;15.588;2023-04-12T05:37:03;97148.89;;;-0.06;86.94
73106;BME280;61559;50.476;15.588;2023-04-12T05:39:35;97151.89;;;0.05;86.97
73106;BME280;61559;50.476;15.588;2023-04-12T05:42:05;97152.48;;;0.13;86.83
73106;BME280;61559;50.476;15.588;2023-04-12T05:44:37;97153.63;;;0.20;87.23
73106;BME280;61559;50.476;15.588;2023-04-12T05:47:08;97158.52;;;0.30;87.14
73106;BME280;61559;50.476;15.588;2023-04-12T05:49:39;97162.15;;;0.40;87.00
73106;BME280;61559;50.476;15.588;2023-04-12T05:52:10;97160.77;;;0.47;87.10
73106;BME280;61559;50.476;15.588;2023-04-12T05:54:41;97153.38;;;0.54;86.75
73106;BME280;61559;50.476;15.588;2023-04-12T05:57:12;97153.09;;;0.59;86.85
73106;BME280;61559;50.476;15.588;2023-04-12T05:59:44;97148.98;;;0.61;86.88
73106;BME280;61559;50.476;15.588;2023-04-12T06:02:15;97149.00;;;0.65;86.88
73106;BME280;61559;50.476;15.588;2023-04-12T06:04:47;97151.60;;;0.71;86.92
73106;BME280;61559;50.476;15.588;2023-04-12T06:07:20;97150.17;;;0.76;86.97
73106;BME280;61559;50.476;15.588;2023-04-12T06:09:51;97144.82;;;0.79;86.94
73106;BME280;61559;50.476;15.588;2023-04-12T06:12:22;97145.84;;;0.85;87.08
73106;BME280;61559;50.476;15.588;2023-04-12T06:14:53;97141.33;;;0.85;86.99
73106;BME280;61559;50.476;15.588;2023-04-12T06:17:25;97142.17;;;0.89;87.13
73106;BME280;61559;50.476;15.588;2023-04-12T06:19:56;97141.20;;;0.95;87.24
73106;BME280;61559;50.476;15.588;2023-04-12T06:22:27;97136.39;;;1.02;87.18
73106;BME280;61559;50.476;15.588;2023-04-12T06:24:58;97135.99;;;1.06;87.19
73106;BME280;61559;50.476;15.588;2023-04-12T06:27:30;97127.11;;;1.12;87.34
73106;BME280;61559;50.476;15.588;2023-04-12T06:30:01;97125.23;;;1.18;87.33
73106;BME280;61559;50.476;15.588;2023-04-12T06:32:31;97118.79;;;1.25;87.33
73106;BME280;61559;50.476;15.588;2023-04-12T06:35:02;97113.97;;;1.27;87.35
73106;BME280;61559;50.476;15.588;2023-04-12T06:37:33;97111.92;;;1.43;87.26
73106;BME280;61559;50.476;15.588;2023-04-12T06:40:06;97109.97;;;1.54;87.27
73106;BME280;61559;50.476;15.588;2023-04-12T06:42:37;97103.92;;;1.61;86.86
73106;BME280;61559;50.476;15.588;2023-04-12T06:45:09;97098.32;;;1.68;86.88
73106;BME280;61559;50.476;15.588;2023-04-12T06:47:40;97092.43;;;1.77;86.77
73106;BME280;61559;50.476;15.588;2023-04-12T06:50:12;97094.48;;;1.83;86.34
73106;BME280;61559;50.476;15.588;2023-04-12T06:52:43;97086.90;;;1.89;86.25
73106;BME280;61559;50.476;15.588;2023-04-12T06:55:14;97086.77;;;1.95;86.28
73106;BME280;61559;50.476;15.588;2023-04-12T06:57:46;97084.36;;;2.02;86.12
73106;BME280;61559;50.476;15.588;2023-04-12T07:00:23;97078.75;;;2.08;86.13
73106;BME280;61559;50.476;15.588;2023-04-12T07:02:54;97071.08;;;2.18;86.19
73106;BME280;61559;50.476;15.588;2023-04-12T07:05:25;97070.93;;;2.26;86.37
73106;BME280;61559;50.476;15.588;2023-04-12T07:07:57;97074.66;;;2.33;86.40
73106;BME280;61559;50.476;15.588;2023-04-12T07:10:28;97073.43;;;2.42;86.65
73106;BME280;61559;50.476;15.588;2023-04-12T07:12:59;97073.89;;;2.52;86.99
73106;BME280;61559;50.476;15.588;2023-04-12T07:15:32;97067.34;;;2.61;87.08
73106;BME280;61559;50.476;15.588;2023-04-12T07:18:02;97068.05;;;2.75;87.45
73106;BME280;61559;50.476;15.588;2023-04-12T07:20:33;97068.03;;;2.85;87.57
73106;BME280;61559;50.476;15.588;2023-04-12T07:23:04;97063.14;;;2.93;87.47
73106;BME280;61559;50.476;15.588;2023-04-12T07:25:37;97058.63;;;3.03;87.43
73106;BME280;61559;50.476;15.588;2023-04-12T07:28:08;97055.59;;;3.13;87.39
73106;BME280;61559;50.476;15.588;2023-04-12T07:30:40;97051.36;;;3.25;87.43
73106;BME280;61559;50.476;15.588;2023-04-12T07:33:11;97053.93;;;3.37;87.53
73106;BME280;61559;50.476;15.588;2023-04-12T07:35:48;97054.70;;;3.50;87.43
73106;BME280;61559;50.476;15.588;2023-04-12T07:38:19;97047.94;;;3.58;87.34
73106;BME280;61559;50.476;15.588;2023-04-12T07:40:50;97047.06;;;3.77;87.59
73106;BME280;61559;50.476;15.588;2023-04-12T07:43:21;97043.05;;;3.93;87.65
73106;BME280;61559;50.476;15.588;2023-04-12T07:45:54;97042.54;;;4.05;86.99
73106;BME280;61559;50.476;15.588;2023-04-12T07:48:25;97046.20;;;4.18;86.99
73106;BME280;61559;50.476;15.588;2023-04-12T07:50:55;97051.81;;;4.28;86.87
73106;BME280;61559;50.476;15.588;2023-04-12T07:53:27;97051.02;;;4.30;86.51
73106;BME280;61559;50.476;15.588;2023-04-12T07:55:58;97055.21;;;4.29;85.94
73106;BME280;61559;50.476;15.588;2023-04-12T07:58:30;97058.16;;;4.30;85.98
73106;BME280;61559;50.476;15.588;2023-04-12T08:01:01;97056.77;;;4.31;85.80
73106;BME280;61559;50.476;15.588;2023-04-12T08:03:32;97055.53;;;4.35;85.84
73106;BME280;61559;50.476;15.588;2023-04-12T08:06:04;97053.97;;;4.40;85.63
73106;BME280;61559;50.476;15.588;2023-04-12T08:08:35;97050.69;;;4.41;85.45
73106;BME280;61559;50.476;15.588;2023-04-12T08:11:06;97048.73;;;4.46;85.54
73106;BME280;61559;50.476;15.588;2023-04-12T08:13:37;97041.02;;;4.57;85.55
73106;BME280;61559;50.476;15.588;2023-04-12T08:16:09;97037.30;;;4.71;85.80
73106;BME280;61559;50.476;15.588;2023-04-12T08:18:43;97037.15;;;4.86;85.42
73106;BME280;61559;50.476;15.588;2023-04-12T08:21:14;97036.89;;;4.96;84.76
73106;BME280;61559;50.476;15.588;2023-04-12T08:23:45;97034.95;;;5.11;84.78
73106;BME280;61559;50.476;15.588;2023-04-12T08:26:17;97039.14;;;5.17;83.99
73106;BME280;61559;50.476;15.588;2023-04-12T08:28:48;97041.35;;;5.23;83.78
73106;BME280;61559;50.476;15.588;2023-04-12T08:31:20;97034.30;;;5.24;83.21
73106;BME280;61559;50.476;15.588;2023-04-12T08:33:52;97036.10;;;5.23;83.33
73106;BME280;61559;50.476;15.588;2023-04-12T08:36:23;97031.03;;;5.21;83.07
73106;BME280;61559;50.476;15.588;2023-04-12T08:38:58;97027.45;;;5.19;83.32
73106;BME280;61559;50.476;15.588;2023-04-12T08:41:29;97020.94;;;5.13;82.70
73106;BME280;61559;50.476;15.588;2023-04-12T08:44:01;97019.34;;;5.11;82.91
73106;BME280;61559;50.476;15.588;2023-04-12T08:46:35;97014.42;;;5.09;82.99
73106;BME280;61559;50.476;15.588;2023-04-12T08:49:06;97007.34;;;5.05;83.07
73106;BME280;61559;50.476;15.588;2023-04-12T08:51:38;97004.70;;;5.02;83.00
73106;BME280;61559;50.476;15.588;2023-04-12T08:54:10;97001.34;;;5.01;83.42
73106;BME280;61559;50.476;15.588;2023-04-12T08:56:43;96995.08;;;5.01;83.79
73106;BME280;61559;50.476;15.588;2023-04-12T08:59:15;96986.38;;;5.04;83.92
73106;BME280;61559;50.476;15.588;2023-04-12T09:01:48;96981.55;;;5.09;84.16
73106;BME280;61559;50.476;15.588;2023-04-12T09:04:20;96973.70;;;5.14;84.24
73106;BME280;61559;50.476;15.588;2023-04-12T09:06:52;96964.46;;;5.14;84.26
73106;BME280;61559;50.476;15.588;2023-04-12T09:09:40;96961.88;;;5.22;84.41
73106;BME280;61559;50.476;15.588;2023-04-12T09:12:12;96964.27;;;5.22;83.96
73106;BME280;61559;50.476;15.588;2023-04-12T09:14:44;96958.40;;;5.23;84.34
73106;BME280;61559;50.476;15.588;2023-04-12T09:17:25;96958.63;;;5.22;84.17
73106;BME280;61559;50.476;15.588;2023-04-12T09:19:57;96946.10;;;5.25;84.48
73106;BME280;61559;50.476;15.588;2023-04-12T09:22:36;96939.10;;;5.31;84.65
73106;BME280;61559;50.476;15.588;2023-04-12T09:25:10;96936.66;;;5.38;84.63
73106;BME280;61559;50.476;15.588;2023-04-12T09:27:47;96936.14;;;5.46;84.76
73106;BME280;61559;50.476;15.588;2023-04-12T09:30:20;96926.93;;;5.55;84.66
73106;BME280;61559;50.476;15.588;2023-04-12T09:32:51;96924.02;;;5.68;84.94
73106;BME280;61559;50.476;15.588;2023-04-12T09:35:34;96925.23;;;5.81;84.87
73106;BME280;61559;50.476;15.588;2023-04-12T09:38:09;96915.24;;;5.96;84.72
73106;BME280;61559;50.476;15.588;2023-04-12T09:40:40;96910.98;;;6.09;84.13
73106;BME280;61559;50.476;15.588;2023-04-12T09:43:11;96909.65;;;6.18;83.75
73106;BME280;61559;50.476;15.588;2023-04-12T09:45:41;96906.16;;;6.27;83.47
73106;BME280;61559;50.476;15.588;2023-04-12T09:48:19;96901.13;;;6.32;83.40
73106;BME280;61559;50.476;15.588;2023-04-12T09:50:58;96890.09;;;6.40;82.86
73106;BME280;61559;50.476;15.588;2023-04-12T09:53:31;96886.48;;;6.45;82.62
73106;BME280;61559;50.476;15.588;2023-04-12T09:56:04;96879.48;;;6.51;82.47
73106;BME280;61559;50.476;15.588;2023-04-12T09:58:38;96874.89;;;6.58;82.49
73106;BME280;61559;50.476;15.588;2023-04-12T10:01:10;96873.58;;;6.66;82.69
73106;BME280;61559;50.476;15.588;2023-04-12T10:03:44;96869.61;;;6.77;82.62
73106;BME280;61559;50.476;15.588;2023-04-12T10:06:15;96865.64;;;6.86;82.02
73106;BME280;61559;50.476;15.588;2023-04-12T10:08:49;96861.38;;;6.92;80.98
73106;BME280;61559;50.476;15.588;2023-04-12T10:11:20;96860.55;;;6.97;80.15
73106;BME280;61559;50.476;15.588;2023-04-12T10:13:52;96855.70;;;7.02;79.09
73106;BME280;61559;50.476;15.588;2023-04-12T10:16:26;96850.97;;;7.10;78.03
73106;BME280;61559;50.476;15.588;2023-04-12T10:19:02;96849.05;;;7.20;75.81
73106;BME280;61559;50.476;15.588;2023-04-12T10:21:33;96846.02;;;7.26;74.98
73106;BME280;61559;50.476;15.588;2023-04-12T10:24:05;96845.98;;;7.38;74.10
73106;BME280;61559;50.476;15.588;2023-04-12T10:26:41;96846.03;;;7.48;72.21
73106;BME280;61559;50.476;15.588;2023-04-12T10:29:30;96847.58;;;7.59;70.66
73106;BME280;61559;50.476;15.588;2023-04-12T10:32:19;96847.55;;;7.67;69.64
73106;BME280;61559;50.476;15.588;2023-04-12T10:34:54;96854.31;;;7.78;70.63
73106;BME280;61559;50.476;15.588;2023-04-12T10:37:58;96856.40;;;7.83;69.00
73106;BME280;61559;50.476;15.588;2023-04-12T10:40:30;96851.84;;;7.89;68.02
73106;BME280;61559;50.476;15.588;2023-04-12T10:43:25;96847.88;;;7.97;67.50
73106;BME280;61559;50.476;15.588;2023-04-12T10:45:57;96846.44;;;8.05;67.46
73106;BME280;61559;50.476;15.588;2023-04-12T10:48:33;96838.02;;;8.10;66.62
73106;BME280;61559;50.476;15.588;2023-04-12T10:51:19;96833.56;;;8.16;68.44
73106;BME280;61559;50.476;15.588;2023-04-12T10:54:29;96827.75;;;8.24;66.82
73106;BME280;61559;50.476;15.588;2023-04-12T10:56:47;96824.46;;;8.31;66.63
73106;BME280;61559;50.476;15.588;2023-04-12T10:59:18;96822.48;;;8.37;66.03
73106;BME280;61559;50.476;15.588;2023-04-12T11:02:09;96818.71;;;8.44;65.04
73106;BME280;61559;50.476;15.588;2023-04-12T11:05:04;96812.39;;;8.49;60.69
73106;BME280;61559;50.476;15.588;2023-04-12T11:07:41;96810.13;;;8.53;62.91
73106;BME280;61559;50.476;15.588;2023-04-12T11:10:16;96807.83;;;8.62;64.42
73106;BME280;61559;50.476;15.588;2023-04-12T11:12:51;96797.86;;;8.69;63.38
73106;BME280;61559;50.476;15.588;2023-04-12T11:15:27;96795.00;;;8.77;62.26
73106;BME280;61559;50.476;15.588;2023-04-12T11:18:05;96792.16;;;8.82;59.25
73106;BME280;61559;50.476;15.588;2023-04-12T11:20:39;96785.04;;;8.87;57.86
73106;BME280;61559;50.476;15.588;2023-04-12T11:23:11;96778.63;;;8.90;58.00
73106;BME280;61559;50.476;15.588;2023-04-12T11:25:42;96774.07;;;8.97;55.89
73106;BME280;61559;50.476;15.588;2023-04-12T11:28:17;96771.23;;;9.04;53.98
73106;BME280;61559;50.476;15.588;2023-04-12T11:30:58;96762.11;;;9.09;54.84
73106;BME280;61559;50.476;15.588;2023-04-12T11:33:34;96760.00;;;9.16;55.75
73106;BME280;61559;50.476;15.588;2023-04-12T11:36:08;96752.77;;;9.19;54.28
73106;BME280;61559;50.476;15.588;2023-04-12T11:38:41;96751.45;;;9.24;52.08
73106;BME280;61559;50.476;15.588;2023-04-12T11:41:15;96750.30;;;9.27;52.87
73106;BME280;61559;50.476;15.588;2023-04-12T11:43:48;96741.52;;;9.29;52.90
73106;BME280;61559;50.476;15.588;2023-04-12T11:46:19;96738.67;;;9.34;53.05
73106;BME280;61559;50.476;15.588;2023-04-12T11:48:50;96731.66;;;9.40;53.63
73106;BME280;61559;50.476;15.588;2023-04-12T11:51:22;96728.95;;;9.44;54.22
73106;BME280;61559;50.476;15.588;2023-04-12T11:54:01;96719.72;;;9.51;49.78
73106;BME280;61559;50.476;15.588;2023-04-12T11:56:33;96716.21;;;9.58;51.41
73106;BME280;61559;50.476;15.588;2023-04-12T11:59:04;96712.53;;;9.64;51.40
73106;BME280;61559;50.476;15.588;2023-04-12T12:01:36;96710.46;;;9.73;49.37
73106;BME280;61559;50.476;15.588;2023-04-12T12:04:07;96709.32;;;9.76;47.80
73106;BME280;61559;50.476;15.588;2023-04-12T12:06:39;96698.07;;;9.78;49.71
73106;BME280;61559;50.476;15.588;2023-04-12T12:09:11;96700.48;;;9.87;50.56
73106;BME280;61559;50.476;15.588;2023-04-12T12:11:43;96699.70;;;9.95;51.26
73106;BME280;61559;50.476;15.588;2023-04-12T12:14:19;96699.67;;;10.04;51.59
73106;BME280;61559;50.476;15.588;2023-04-12T12:16:57;96696.27;;;10.10;51.03
73106;BME280;61559;50.476;15.588;2023-04-12T12:19:30;96702.27;;;10.14;52.54
73106;BME280;61559;50.476;15.588;2023-04-12T12:22:15;96697.84;;;10.18;49.97
73106;BME280;61559;50.476;15.588;2023-04-12T12:24:51;96691.40;;;10.24;50.00
73106;BME280;61559;50.476;15.588;2023-04-12T12:27:32;96690.50;;;10.30;51.94
73106;BME280;61559;50.476;15.588;2023-04-12T12:30:05;96683.88;;;10.38;53.28
73106;BME280;61559;50.476;15.588;2023-04-12T12:32:40;96673.91;;;10.50;51.78
73106;BME280;61559;50.476;15.588;2023-04-12T12:35:13;96658.62;;;10.56;45.29
73106;BME280;61559;50.476;15.588;2023-04-12T12:37:51;96659.35;;;10.53;48.77
73106;BME280;61559;50.476;15.588;2023-04-12T12:40:30;96657.52;;;10.50;51.17
73106;BME280;61559;50.476;15.588;2023-04-12T12:43:02;96659.13;;;10.54;50.83
73106;BME280;61559;50.476;15.588;2023-04-12T12:45:33;96655.27;;;10.57;51.27
73106;BME280;61559;50.476;15.588;2023-04-12T12:48:05;96650.16;;;10.64;50.04
73106;BME280;61559;50.476;15.588;2023-04-12T12:50:36;96642.94;;;10.69;49.98
73106;BME280;61559;50.476;15.588;2023-04-12T12:53:08;96632.45;;;10.75;50.53
73106;BME280;61559;50.476;15.588;2023-04-12T12:55:40;96630.75;;;10.81;51.23
73106;BME280;61559;50.476;15.588;2023-04-12T12:58:11;96622.70;;;10.86;48.64
73106;BME280;61559;50.476;15.588;2023-04-12T13:00:42;96621.02;;;10.89;49.82
73106;BME280;61559;50.476;15.588;2023-04-12T13:03:14;96617.02;;;10.90;48.95
73106;BME280;61559;50.476;15.588;2023-04-12T13:05:46;96610.45;;;10.93;48.50
73106;BME280;61559;50.476;15.588;2023-04-12T13:08:17;96607.77;;;10.97;48.55
73106;BME280;61559;50.476;15.588;2023-04-12T13:10:48;96609.48;;;11.04;48.87
73106;BME280;61559;50.476;15.588;2023-04-12T13:13:20;96604.02;;;11.12;49.57
73106;BME280;61559;50.476;15.588;2023-04-12T13:15:51;96603.39;;;11.22;47.87
73106;BME280;61559;50.476;15.588;2023-04-12T13:18:22;96598.94;;;11.28;47.66
73106;BME280;61559;50.476;15.588;2023-04-12T13:20:53;96600.80;;;11.33;46.24
73106;BME280;61559;50.476;15.588;2023-04-12T13:23:25;96591.81;;;11.32;44.76
73106;BME280;61559;50.476;15.588;2023-04-12T13:25:56;96588.72;;;11.35;46.72